Time;durP1;ratioP1;P1;durP2;ratioP2;P2;SDS_P1;SDS_P2;PMS_P1;PMS_P2;Temp;Humidity;BMP_temperature;BMP_pressure;BME280_temperature;BME280_humidity;BME280_pressure;Samples;Min_cycle;Max_cycle;Signal;HPM_P1;HPM_P2
2023/07/15 00:01:42;;;;;;;17.00;12.70;;;;;;;21.60;88.02;97823.44;10285178;28;20124;-50
2023/07/15 00:06:41;;;;;;;15.32;13.02;;;;;;;21.58;88.24;97833.19;10285965;28;20065;-52
2023/07/15 00:11:45;;;;;;;15.15;12.52;;;;;;;21.47;88.55;97824.88;10284835;28;20117;-52
2023/07/15 00:16:44;;;;;;;17.50;12.85;;;;;;;21.26;89.77;97822.25;10290810;28;20181;-51
2023/07/15 00:21:43;;;;;;;18.23;13.15;;;;;;;21.20;90.54;97840.97;10285092;28;20121;-52
2023/07/15 00:26:44;;;;;;;16.77;14.13;;;;;;;21.14;90.88;97835.94;10279638;28;20233;-52
2023/07/15 00:31:43;;;;;;;21.48;15.70;;;;;;;20.96;90.68;97805.06;10283230;28;20070;-49
2023/07/15 00:36:42;;;;;;;21.75;16.90;;;;;;;20.99;91.61;97837.47;10284858;28;20073;-52
2023/07/15 00:41:41;;;;;;;23.52;16.83;;;;;;;20.95;91.75;97843.78;10284238;28;20056;-51
2023/07/15 00:46:59;;;;;;;21.10;15.63;;;;;;;20.97;91.59;97844.56;10284195;28;20033;-51
2023/07/15 00:52:10;;;;;;;19.52;15.38;;;;;;;20.91;91.94;97855.38;10283593;28;20057;-53
2023/07/15 00:57:11;;;;;;;22.65;15.95;;;;;;;20.86;92.50;97854.72;10305224;28;20065;-52
2023/07/15 01:02:11;;;;;;;21.55;16.80;;;;;;;20.68;93.66;97844.00;10283583;28;20133;-50
2023/07/15 01:07:10;;;;;;;20.55;16.08;;;;;;;20.70;93.59;97859.75;10283708;28;20487;-50
2023/07/15 01:12:09;;;;;;;21.27;15.27;;;;;;;20.65;93.82;97862.56;10282770;28;20421;-51
2023/07/15 01:17:07;;;;;;;17.73;13.57;;;;;;;20.67;93.28;97863.34;10283613;28;20132;-52
2023/07/15 01:22:07;;;;;;;17.73;12.38;;;;;;;20.70;92.90;97863.25;10285696;28;20045;-52
2023/07/15 01:27:08;;;;;;;19.50;12.95;;;;;;;20.68;92.70;97865.09;10286787;28;20074;-52
2023/07/15 01:32:07;;;;;;;20.73;14.55;;;;;;;20.70;92.50;97855.34;10285934;28;20550;-52
2023/07/15 01:37:06;;;;;;;18.55;14.55;;;;;;;20.71;92.73;97853.56;10287213;28;20061;-53
2023/07/15 01:42:05;;;;;;;20.48;14.15;;;;;;;20.72;92.62;97850.00;10288729;28;20109;-52
2023/07/15 01:47:04;;;;;;;24.08;15.23;;;;;;;20.77;92.47;97848.03;10294290;28;20084;-51
2023/07/15 01:52:04;;;;;;;20.67;14.73;;;;;;;20.78;92.39;97849.75;10293484;28;20068;-52
2023/07/15 01:57:03;;;;;;;19.60;14.00;;;;;;;20.80;92.59;97849.69;10293504;28;20095;-51
2023/07/15 02:02:02;;;;;;;19.23;14.30;;;;;;;20.82;92.42;97855.75;10293803;28;20066;-51
2023/07/15 02:07:01;;;;;;;17.05;14.10;;;;;;;20.81;92.46;97854.91;10294196;28;20074;-51
2023/07/15 02:12:00;;;;;;;21.48;14.02;;;;;;;20.59;92.78;97839.09;10293011;28;20052;-50
2023/07/15 02:16:59;;;;;;;18.30;14.48;;;;;;;20.64;92.97;97857.38;10292962;28;20037;-51
2023/07/15 02:21:58;;;;;;;22.67;15.57;;;;;;;20.54;93.29;97863.91;10289721;28;20104;-51
2023/07/15 02:26:57;;;;;;;22.15;15.63;;;;;;;20.47;93.66;97869.44;10289693;28;20065;-49
2023/07/15 02:31:57;;;;;;;25.55;17.90;;;;;;;20.36;93.38;97852.28;10288869;28;20045;-52
2023/07/15 02:36:56;;;;;;;24.30;17.40;;;;;;;20.39;93.55;97847.75;10289206;28;20581;-51
2023/07/15 02:41:55;;;;;;;28.27;18.30;;;;;;;20.39;93.58;97863.56;10289467;28;20539;-51
2023/07/15 02:46:54;;;;;;;25.63;17.33;;;;;;;20.29;93.56;97847.25;10289047;28;20069;-49
2023/07/15 02:51:53;;;;;;;21.25;15.65;;;;;;;20.36;93.44;97868.09;10288006;28;20113;-50
2023/07/15 02:56:53;;;;;;;20.92;15.02;;;;;;;20.42;93.16;97866.13;10287747;28;20069;-51
2023/07/15 03:01:52;;;;;;;19.38;13.77;;;;;;;20.39;93.12;97865.34;10288593;28;20547;-52
2023/07/15 03:06:55;;;;;;;19.75;13.32;;;;;;;20.26;93.48;97849.16;10287621;28;20551;-52
2023/07/15 03:11:54;;;;;;;19.85;14.43;;;;;;;20.21;93.46;97843.19;10318885;28;20076;-52
2023/07/15 03:16:53;;;;;;;18.17;14.38;;;;;;;20.37;93.60;97859.28;10287334;28;20025;-52
2023/07/15 03:21:52;;;;;;;18.38;14.10;;;;;;;20.29;93.92;97857.78;10284720;28;20038;-49
2023/07/15 03:26:54;;;;;;;18.75;13.63;;;;;;;20.26;94.12;97862.34;10286148;28;20392;-52
2023/07/15 03:31:54;;;;;;;19.77;13.15;;;;;;;20.24;93.64;97859.75;10286291;28;20074;-50
2023/07/15 03:36:53;;;;;;;17.25;13.00;;;;;;;20.13;93.79;97875.09;10286568;28;20072;-50
2023/07/15 03:41:52;;;;;;;18.60;12.10;;;;;;;19.95;94.64;97875.78;10286723;28;20077;-49
2023/07/15 03:46:54;;;;;;;17.33;12.80;;;;;;;19.96;94.94;97870.47;10286016;28;20033;-49
2023/07/15 03:51:53;;;;;;;15.43;11.98;;;;;;;20.13;94.36;97867.19;10285659;28;20129;-51
2023/07/15 03:56:52;;;;;;;19.27;13.52;;;;;;;20.00;94.17;97829.94;10285998;28;20506;-51
2023/07/15 04:01:51;;;;;;;16.60;12.00;;;;;;;20.42;93.42;97863.50;10285557;28;20048;-52
2023/07/15 04:06:51;;;;;;;18.35;12.75;;;;;;;20.65;92.80;97880.16;10284928;28;20499;-51
2023/07/15 04:11:51;;;;;;;17.58;13.15;;;;;;;20.82;91.72;97879.47;10285759;28;20117;-52
2023/07/15 04:16:50;;;;;;;17.17;13.43;;;;;;;20.78;91.56;97860.31;10285069;28;20072;-52
2023/07/15 04:21:49;;;;;;;18.50;12.75;;;;;;;21.14;90.90;97888.72;10286255;28;20046;-50
2023/07/15 04:26:48;;;;;;;19.98;12.05;;;;;;;21.27;89.41;97889.97;10287870;28;20077;-52
2023/07/15 04:31:47;;;;;;;18.38;12.10;;;;;;;21.23;89.24;97904.22;10287867;28;20171;-52
2023/07/15 04:36:46;;;;;;;16.10;11.55;;;;;;;21.16;89.57;97880.75;10287115;28;20044;-52
2023/07/15 04:41:46;;;;;;;17.30;11.70;;;;;;;21.58;89.24;97903.66;10288020;28;20754;-52
2023/07/15 04:46:45;;;;;;;15.13;11.15;;;;;;;21.82;87.18;97904.34;10287298;28;20781;-52
2023/07/15 04:51:44;;;;;;;16.70;12.30;;;;;;;21.80;86.59;97909.69;10287437;28;20062;-51
2023/07/15 04:56:44;;;;;;;18.27;13.02;;;;;;;21.67;86.34;97887.41;10287017;28;20036;-52
2023/07/15 05:01:43;;;;;;;17.58;13.75;;;;;;;21.86;86.57;97909.44;10287352;28;20068;-50
2023/07/15 05:06:42;;;;;;;20.80;13.25;;;;;;;21.99;86.17;97906.28;10271853;28;20117;-51
2023/07/15 05:11:41;;;;;;;25.90;14.02;;;;;;;22.13;85.64;97907.38;10284159;28;20038;-52
2023/07/15 05:16:42;;;;;;;17.65;13.85;;;;;;;22.31;85.53;97908.31;10287139;28;20061;-51
2023/07/15 05:21:41;;;;;;;19.10;13.20;;;;;;;22.36;85.42;97893.09;10288163;28;20614;-51
2023/07/15 05:26:40;;;;;;;23.20;13.82;;;;;;;22.45;85.24;97897.09;10301579;28;20479;-50
2023/07/15 05:31:39;;;;;;;20.48;13.43;;;;;;;22.74;84.54;97902.81;10285683;28;20566;-51
2023/07/15 05:36:38;;;;;;;29.48;23.77;;;;;;;22.62;84.46;97912.16;10287387;28;20040;-49
2023/07/15 05:41:37;;;;;;;23.30;14.73;;;;;;;22.72;85.88;97909.97;10289590;28;20042;-52
2023/07/15 05:46:37;;;;;;;17.02;12.50;;;;;;;22.93;84.48;97918.69;10290952;28;20042;-52
2023/07/15 05:51:36;;;;;;;17.52;12.65;;;;;;;23.15;83.27;97929.94;10289930;28;20057;-51
2023/07/15 05:56:35;;;;;;;13.85;12.02;;;;;;;23.35;81.50;97925.44;10290329;28;20305;-52
2023/07/15 06:01:34;;;;;;;21.70;13.10;;;;;;;23.63;80.67;97924.91;10289975;28;20037;-52
2023/07/15 06:06:33;;;;;;;16.23;11.20;;;;;;;23.75;78.42;97920.81;10290061;28;20495;-51
2023/07/15 06:11:32;;;;;;;16.05;11.57;;;;;;;23.93;78.16;97922.47;10290164;28;20033;-51
2023/07/15 06:16:32;;;;;;;17.85;12.43;;;;;;;24.30;77.38;97917.91;10288872;28;20145;-52
2023/07/15 06:21:31;;;;;;;28.05;12.73;;;;;;;24.63;73.74;97915.19;10289338;28;20137;-49
2023/07/15 06:26:30;;;;;;;16.15;10.50;;;;;;;24.94;73.14;97910.00;10288927;28;20133;-49
2023/07/15 06:31:29;;;;;;;16.25;11.00;;;;;;;25.20;72.38;97909.38;10301453;28;20050;-52
2023/07/15 06:36:28;;;;;;;18.08;11.48;;;;;;;25.23;71.13;97882.63;10288853;28;20042;-53
2023/07/15 06:41:27;;;;;;;20.98;11.25;;;;;;;25.57;70.49;97901.91;10288812;28;20482;-52
2023/07/15 06:46:26;;;;;;;12.57;9.57;;;;;;;25.83;66.61;97896.81;10288560;28;20406;-52
2023/07/15 06:51:25;;;;;;;13.02;9.63;;;;;;;25.80;65.12;97902.34;10287961;28;20021;-52
2023/07/15 06:56:24;;;;;;;12.52;9.15;;;;;;;25.85;64.58;97902.91;10285276;28;20143;-52
2023/07/15 07:01:23;;;;;;;16.80;9.25;;;;;;;25.92;65.06;97894.44;10287995;28;20113;-51
2023/07/15 07:06:22;;;;;;;15.57;9.90;;;;;;;26.02;63.16;97894.78;10287067;28;20069;-52
2023/07/15 07:11:21;;;;;;;15.57;8.75;;;;;;;26.12;64.04;97901.22;10287717;28;20038;-50
2023/07/15 07:16:20;;;;;;;14.75;8.57;;;;;;;26.26;62.03;97902.19;10286767;28;20129;-51
2023/07/15 07:21:19;;;;;;;11.00;7.63;;;;;;;26.27;61.18;97903.91;10286624;28;20621;-52
2023/07/15 07:26:18;;;;;;;11.23;7.53;;;;;;;26.38;61.15;97896.09;10286792;28;20132;-53
2023/07/15 07:31:18;;;;;;;11.00;7.78;;;;;;;26.47;61.48;97871.56;10286204;28;20205;-51
2023/07/15 07:36:17;;;;;;;11.07;7.13;;;;;;;26.73;61.10;97887.69;10287038;28;20149;-52
2023/07/15 07:41:16;;;;;;;12.73;7.85;;;;;;;26.98;61.78;97882.50;10286470;28;20033;-52
2023/07/15 07:46:15;;;;;;;11.05;7.03;;;;;;;26.98;58.44;97885.16;10286660;28;20081;-52
2023/07/15 07:51:14;;;;;;;10.13;6.50;;;;;;;27.32;57.82;97888.22;10285235;28;20140;-51
2023/07/15 07:56:13;;;;;;;10.75;6.97;;;;;;;27.48;57.43;97879.25;10284105;28;20482;-50
2023/07/15 08:01:13;;;;;;;8.43;6.85;;;;;;;27.47;56.45;97880.19;10284855;28;20410;-51
2023/07/15 08:06:12;;;;;;;9.73;6.80;;;;;;;27.33;56.73;97879.28;10285002;28;20072;-50
2023/07/15 08:11:11;;;;;;;9.90;6.93;;;;;;;27.60;56.28;97873.06;10282200;28;20122;-52
2023/07/15 08:16:35;;;;;;;11.30;7.85;;;;;;;27.71;55.48;97878.53;10283396;28;20125;-51
2023/07/15 08:21:34;;;;;;;11.13;6.25;;;;;;;27.77;55.15;97877.22;10282752;28;20077;-52
2023/07/15 08:26:33;;;;;;;8.75;6.60;;;;;;;27.98;55.12;97869.53;10284265;28;20073;-51
2023/07/15 08:31:33;;;;;;;11.55;6.38;;;;;;;28.11;53.60;97870.44;10285033;28;20161;-50
2023/07/15 08:36:34;;;;;;;10.23;7.13;;;;;;;28.03;53.88;97862.94;10266997;28;20143;-52
2023/07/15 08:41:33;;;;;;;16.52;7.25;;;;;;;28.41;53.97;97867.41;10281605;28;20108;-51
2023/07/15 08:46:32;;;;;;;8.13;6.47;;;;;;;28.77;53.76;97870.19;10284250;28;20081;-52
2023/07/15 08:51:34;;;;;;;11.63;7.68;;;;;;;28.70;53.43;97874.28;10282623;28;20025;-52
2023/07/15 08:56:36;;;;;;;14.65;7.18;;;;;;;28.59;53.17;97859.84;10284385;28;20080;-52
2023/07/15 09:01:35;;;;;;;10.60;7.32;;;;;;;28.87;53.06;97868.53;10283920;28;20128;-52
2023/07/15 09:06:35;;;;;;;12.75;7.18;;;;;;;29.03;53.29;97873.59;10283262;28;20069;-51
2023/07/15 09:11:39;;;;;;;13.00;7.38;;;;;;;29.34;52.63;97872.16;10283261;28;20113;-53
2023/07/15 09:16:38;;;;;;;10.20;7.32;;;;;;;29.59;52.61;97870.31;10283434;28;20078;-52
2023/07/15 09:21:37;;;;;;;11.25;7.15;;;;;;;29.43;52.14;97871.47;10285596;28;20120;-53
2023/07/15 09:26:36;;;;;;;19.42;6.93;;;;;;;29.46;52.63;97871.25;10286848;28;20228;-51
2023/07/15 09:31:38;;;;;;;12.75;7.60;;;;;;;29.47;52.70;97872.94;10285810;28;20070;-51
2023/07/15 09:36:37;;;;;;;11.85;6.70;;;;;;;29.77;51.91;97871.56;10286184;28;20486;-52
2023/07/15 09:41:36;;;;;;;10.43;6.68;;;;;;;29.94;51.33;97864.91;10287003;28;20409;-52
2023/07/15 09:46:35;;;;;;;12.05;6.55;;;;;;;30.07;50.66;97851.41;10286792;28;20042;-52
2023/07/15 09:51:34;;;;;;;17.25;6.57;;;;;;;30.19;49.79;97844.22;10285425;28;20033;-51
2023/07/15 09:56:43;;;;;;;7.68;6.50;;;;;;;30.27;50.07;97834.63;10285981;28;20069;-50
2023/07/15 10:01:50;;;;;;;7.95;5.55;;;;;;;30.39;49.29;97843.50;10284549;28;20511;-52
2023/07/15 10:06:51;;;;;;;7.10;5.45;;;;;;;30.12;50.44;97843.91;10293343;28;20065;-53
2023/07/15 10:11:54;;;;;;;8.20;6.10;;;;;;;30.11;49.95;97839.50;10292921;28;20067;-52
2023/07/15 10:17:12;;;;;;;9.18;6.15;;;;;;;29.73;49.69;97763.09;10293721;28;20507;-51
2023/07/15 10:22:11;;;;;;;8.77;5.65;;;;;;;30.17;49.90;97838.19;10289111;28;20639;-51
2023/07/15 10:27:11;;;;;;;9.02;6.38;;;;;;;30.53;49.71;97839.72;10289857;28;20499;-53
2023/07/15 10:32:18;;;;;;;9.30;6.10;;;;;;;30.44;49.04;97841.31;10288368;28;20133;-53
2023/07/15 10:37:20;;;;;;;10.10;7.05;;;;;;;30.65;50.42;97843.22;10289470;28;20134;-52
2023/07/15 10:42:19;;;;;;;8.68;6.03;;;;;;;30.58;49.03;97834.00;10287665;28;20065;-52
2023/07/15 10:47:18;;;;;;;8.27;5.93;;;;;;;30.59;49.71;97823.16;10298486;28;20046;-52
2023/07/15 10:52:19;;;;;;;10.85;6.55;;;;;;;30.83;49.53;97827.47;10287791;28;20100;-52
2023/07/15 10:57:19;;;;;;;12.20;6.85;;;;;;;30.33;48.86;97735.09;10288237;28;20498;-50
2023/07/15 11:02:18;;;;;;;8.70;6.10;;;;;;;31.03;48.37;97810.63;10287020;28;20137;-52
2023/07/15 11:07:17;;;;;;;13.60;6.90;;;;;;;31.50;47.89;97808.44;10283905;28;20121;-50
2023/07/15 11:12:16;;;;;;;9.75;6.53;;;;;;;31.39;47.04;97824.56;10282057;28;20480;-52
2023/07/15 11:17:15;;;;;;;9.48;6.05;;;;;;;31.55;47.09;97822.31;10286215;28;20040;-53
2023/07/15 11:22:15;;;;;;;11.20;6.95;;;;;;;31.08;47.78;97803.03;10286928;28;20050;-51
2023/07/15 11:27:14;;;;;;;11.85;6.70;;;;;;;30.91;48.25;97768.72;10286835;28;20061;-51
2023/07/15 11:32:15;;;;;;;11.55;6.53;;;;;;;31.28;48.31;97805.84;10286312;28;20042;-52
2023/07/15 11:37:14;;;;;;;9.95;6.95;;;;;;;31.38;48.43;97804.97;10286416;28;20378;-52
2023/07/15 11:42:13;;;;;;;10.18;6.55;;;;;;;31.55;47.41;97802.69;10259389;28;20049;-53
2023/07/15 11:47:12;;;;;;;8.57;6.53;;;;;;;31.48;48.50;97796.97;10285929;28;20507;-53
2023/07/15 11:52:19;;;;;;;10.27;7.47;;;;;;;31.38;47.66;97775.47;10287679;28;20535;-53
2023/07/15 11:57:27;;;;;;;10.77;6.15;;;;;;;31.68;47.81;97789.88;10285568;28;20499;-50
2023/07/15 12:02:28;;;;;;;10.25;6.35;;;;;;;31.83;47.40;97786.84;10284603;28;20523;-53
2023/07/15 12:07:27;;;;;;;7.88;6.00;;;;;;;31.71;47.20;97788.78;10285461;28;20491;-53
2023/07/15 12:12:26;;;;;;;11.05;6.18;;;;;;;31.75;47.95;97796.41;10284913;28;20511;-53
2023/07/15 12:17:25;;;;;;;11.32;6.82;;;;;;;31.90;47.55;97785.34;10284942;28;20537;-52
2023/07/15 12:22:24;;;;;;;11.07;6.32;;;;;;;31.93;47.31;97779.72;10287510;28;20495;-53
2023/07/15 12:27:23;;;;;;;7.10;6.18;;;;;;;32.07;47.26;97774.00;10287867;28;20040;-53
2023/07/15 12:32:22;;;;;;;8.18;6.45;;;;;;;32.24;47.67;97777.84;10287587;28;20567;-53
2023/07/15 12:37:21;;;;;;;8.00;6.80;;;;;;;32.47;46.98;97783.84;10288602;28;20065;-53
2023/07/15 12:42:20;;;;;;;7.95;6.30;;;;;;;32.39;46.57;97770.28;10287236;28;20274;-54
2023/07/15 12:47:19;;;;;;;6.80;6.10;;;;;;;32.31;46.31;97759.34;10285667;28;20057;-53
2023/07/15 12:52:18;;;;;;;8.45;5.68;;;;;;;32.46;46.62;97767.84;10283721;28;20096;-53
2023/07/15 12:57:17;;;;;;;8.68;6.45;;;;;;;32.66;46.86;97752.66;10286979;28;20092;-52
2023/07/15 13:02:16;;;;;;;10.90;6.95;;;;;;;32.80;45.67;97753.06;10286478;28;20032;-51
2023/07/15 13:07:16;;;;;;;8.43;6.32;;;;;;;32.80;45.42;97758.44;10286865;28;20069;-52
2023/07/15 13:12:15;;;;;;;8.02;6.57;;;;;;;32.42;46.42;97751.19;10286400;28;20472;-54
2023/07/15 13:17:14;;;;;;;11.68;6.80;;;;;;;32.77;44.99;97750.66;10287214;28;20482;-52
2023/07/15 13:22:13;;;;;;;9.27;6.80;;;;;;;32.95;45.20;97758.88;10283947;28;20393;-52
2023/07/15 13:27:12;;;;;;;8.07;6.75;;;;;;;32.62;46.10;97752.94;10283297;28;20064;-53
2023/07/15 13:32:11;;;;;;;9.32;6.95;;;;;;;32.49;46.30;97741.56;10282515;28;20176;-50
2023/07/15 13:37:09;;;;;;;10.65;7.78;;;;;;;32.27;45.37;97748.06;10297610;28;20176;-51
2023/07/15 13:42:12;;;;;;;11.30;8.00;;;;;;;32.31;46.07;97748.59;10290475;28;20040;-52
2023/07/15 13:47:11;;;;;;;10.00;7.05;;;;;;;32.25;46.39;97738.41;10291340;28;20065;-53
2023/07/15 13:52:10;;;;;;;10.82;7.70;;;;;;;32.24;47.03;97748.31;10290395;28;20073;-51
2023/07/15 13:57:09;;;;;;;11.68;7.30;;;;;;;32.22;46.09;97759.22;10290672;28;20052;-52
2023/07/15 14:02:14;;;;;;;11.52;7.57;;;;;;;32.15;45.71;97744.59;10290116;28;20048;-55
2023/07/15 14:07:14;;;;;;;12.20;7.65;;;;;;;32.31;45.43;97744.09;10286544;28;20502;-52
2023/07/15 14:12:13;;;;;;;10.60;7.70;;;;;;;32.01;46.71;97748.53;10287435;28;20482;-54
2023/07/15 14:17:12;;;;;;;10.77;7.78;;;;;;;32.01;46.99;97743.16;10287779;28;20419;-52
2023/07/15 14:22:11;;;;;;;12.75;8.15;;;;;;;32.27;48.33;97753.44;10288655;28;20046;-51
2023/07/15 14:27:11;;;;;;;10.80;7.90;;;;;;;32.06;46.64;97739.22;10289072;28;20030;-53
2023/07/15 14:32:10;;;;;;;11.73;7.72;;;;;;;32.06;47.14;97741.91;10288786;28;20128;-52
2023/07/15 14:37:09;;;;;;;8.98;7.68;;;;;;;32.19;47.20;97737.13;10289460;28;20069;-52
2023/07/15 14:42:08;;;;;;;9.15;7.55;;;;;;;32.34;45.97;97727.72;10287926;28;20438;-53
2023/07/15 14:47:07;;;;;;;10.40;8.07;;;;;;;32.15;46.86;97733.88;10285340;28;20044;-53
2023/07/15 14:52:06;;;;;;;12.82;7.53;;;;;;;32.11;46.65;97734.31;10284521;28;20492;-52
2023/07/15 14:57:05;;;;;;;10.02;7.75;;;;;;;32.12;46.60;97727.94;10284470;28;20160;-53
2023/07/15 15:02:04;;;;;;;8.15;7.32;;;;;;;32.07;46.26;97730.19;10285792;28;20037;-54
2023/07/15 15:07:05;;;;;;;10.80;7.85;;;;;;;31.86;46.57;97727.56;10283515;28;20563;-52
2023/07/15 15:12:04;;;;;;;13.00;8.68;;;;;;;31.81;46.79;97725.28;10283200;28;20128;-54
2023/07/15 15:17:04;;;;;;;14.43;8.18;;;;;;;32.03;46.33;97726.91;10286418;28;20077;-52
2023/07/15 15:22:03;;;;;;;11.25;7.82;;;;;;;31.85;46.65;97726.72;10285967;28;20200;-52
2023/07/15 15:27:02;;;;;;;11.38;7.43;;;;;;;31.81;46.82;97736.03;10285287;28;20113;-53
2023/07/15 15:32:01;;;;;;;21.05;8.85;;;;;;;31.68;46.46;97725.50;10284661;28;20142;-52
2023/07/15 15:37:00;;;;;;;11.10;8.60;;;;;;;31.45;47.15;97732.88;10285886;28;20033;-52
2023/07/15 15:41:59;;;;;;;15.13;10.15;;;;;;;31.53;47.46;97741.13;10283815;28;20029;-52
2023/07/15 15:46:58;;;;;;;10.23;8.45;;;;;;;31.32;47.46;97735.75;10283192;28;20040;-52
2023/07/15 15:51:57;;;;;;;11.48;8.82;;;;;;;31.36;47.82;97731.00;10286220;28;20121;-52
2023/07/15 15:56:56;;;;;;;11.00;7.97;;;;;;;31.39;47.71;97738.75;10283094;28;20128;-52
2023/07/15 16:01:55;;;;;;;10.05;7.93;;;;;;;31.41;47.88;97742.16;10285905;28;20049;-52
2023/07/15 16:06:54;;;;;;;10.88;7.78;;;;;;;31.15;48.18;97739.88;10304358;28;20148;-51
2023/07/15 16:11:53;;;;;;;10.90;8.25;;;;;;;31.41;47.11;97739.47;10283381;28;20125;-50
2023/07/15 16:16:52;;;;;;;9.40;8.18;;;;;;;31.54;47.17;97740.13;10282585;28;20125;-52
2023/07/15 16:21:51;;;;;;;11.45;7.80;;;;;;;31.59;46.94;97737.91;10282329;28;20033;-53
2023/07/15 16:26:50;;;;;;;13.48;8.23;;;;;;;31.57;46.38;97739.88;10281534;28;20471;-50
2023/07/15 16:31:49;;;;;;;11.75;8.18;;;;;;;31.49;47.58;97730.75;10282155;28;20065;-52
2023/07/15 16:36:48;;;;;;;11.80;9.02;;;;;;;31.36;47.47;97741.72;10277626;28;20045;-49
2023/07/15 16:41:47;;;;;;;12.60;9.27;;;;;;;31.39;47.12;97741.44;10279973;28;20555;-51
2023/07/15 16:46:46;;;;;;;12.23;8.90;;;;;;;31.22;47.23;97740.22;10277949;28;21536;-51
2023/07/15 16:51:44;;;;;;;9.20;8.13;;;;;;;31.03;47.94;97735.59;10286145;28;20472;-51
2023/07/15 16:56:43;;;;;;;12.02;8.90;;;;;;;30.95;47.90;97738.03;10284142;28;20450;-52
2023/07/15 17:01:42;;;;;;;14.50;9.18;;;;;;;30.92;47.58;97746.31;10283417;28;20429;-53
2023/07/15 17:06:42;;;;;;;11.45;8.55;;;;;;;30.79;47.50;97753.69;10281338;28;20129;-51
2023/07/15 17:11:41;;;;;;;14.73;9.18;;;;;;;30.85;47.77;97758.53;10284730;28;20070;-52
2023/07/15 17:16:40;;;;;;;10.80;8.38;;;;;;;30.95;47.60;97748.75;10290985;28;20053;-53
2023/07/15 17:21:39;;;;;;;12.27;8.65;;;;;;;30.97;47.03;97754.84;10288420;28;20058;-53
2023/07/15 17:26:38;;;;;;;11.60;8.57;;;;;;;30.95;47.96;97765.69;10291197;28;20041;-53
2023/07/15 17:31:37;;;;;;;11.68;9.15;;;;;;;30.94;47.87;97760.44;10289974;28;20118;-54
2023/07/15 17:36:36;;;;;;;19.65;10.02;;;;;;;30.84;48.86;97767.53;10290888;28;20046;-52
2023/07/15 17:41:35;;;;;;;14.00;10.50;;;;;;;30.66;50.98;97769.94;10287920;28;20479;-53
2023/07/15 17:46:35;;;;;;;16.75;10.77;;;;;;;30.59;52.29;97768.75;10292218;28;20483;-52
2023/07/15 17:51:34;;;;;;;17.15;10.27;;;;;;;30.46;52.93;97775.09;10288971;28;20426;-54
2023/07/15 17:56:33;;;;;;;15.40;11.27;;;;;;;30.25;53.72;97783.03;10290956;28;20132;-52
2023/07/15 18:01:31;;;;;;;12.93;10.52;;;;;;;29.95;54.45;97774.78;10289313;28;20073;-51
2023/07/15 18:06:31;;;;;;;13.73;11.05;;;;;;;29.77;55.25;97780.63;10289760;28;20539;-53
2023/07/15 18:11:30;;;;;;;14.10;10.32;;;;;;;29.55;56.04;97784.13;10285853;28;20572;-53
2023/07/15 18:16:29;;;;;;;12.98;10.50;;;;;;;29.39;56.94;97786.28;10288427;28;20515;-52
2023/07/15 18:21:28;;;;;;;15.60;11.43;;;;;;;29.02;57.65;97765.88;10294895;28;20128;-53
2023/07/15 18:26:27;;;;;;;13.30;9.88;;;;;;;28.95;58.26;97791.38;10285873;28;20129;-53
2023/07/15 18:31:26;;;;;;;16.02;11.18;;;;;;;28.27;58.97;97712.75;10287346;28;20050;-52
2023/07/15 18:36:26;;;;;;;12.70;10.90;;;;;;;28.55;59.89;97809.44;10288850;28;20026;-52
2023/07/15 18:41:25;;;;;;;15.40;10.75;;;;;;;28.37;59.96;97817.00;10287566;28;20476;-51
2023/07/15 18:46:23;;;;;;;15.27;11.05;;;;;;;28.18;60.74;97823.66;10287269;28;20464;-52
2023/07/15 18:51:23;;;;;;;12.82;11.32;;;;;;;27.90;62.03;97808.75;10286433;28;20822;-54
2023/07/15 18:56:21;;;;;;;15.15;11.48;;;;;;;27.66;63.50;97819.34;10284967;28;20061;-53
2023/07/15 19:01:20;;;;;;;17.13;12.00;;;;;;;27.47;64.01;97826.88;10287986;28;20034;-52
2023/07/15 19:06:19;;;;;;;14.13;11.45;;;;;;;27.31;64.81;97833.25;10283962;28;20050;-53
2023/07/15 19:11:18;;;;;;;14.77;12.32;;;;;;;27.21;65.63;97842.78;10286184;28;20128;-52
2023/07/15 19:16:17;;;;;;;16.95;12.57;;;;;;;27.13;66.27;97845.13;10287177;28;20034;-53
2023/07/15 19:21:16;;;;;;;15.30;12.40;;;;;;;27.06;66.50;97846.50;10278932;28;20472;-52
2023/07/15 19:26:15;;;;;;;14.82;11.93;;;;;;;27.01;67.01;97841.47;10280301;28;20484;-52
2023/07/15 19:31:14;;;;;;;19.67;12.63;;;;;;;26.94;67.50;97851.69;10282598;28;20144;-51
2023/07/15 19:36:13;;;;;;;14.00;11.20;;;;;;;26.83;67.06;97854.19;10283602;28;20057;-52
2023/07/15 19:41:14;;;;;;;14.50;11.63;;;;;;;26.74;67.42;97849.44;10282192;28;20472;-53
2023/07/15 19:46:13;;;;;;;15.68;11.55;;;;;;;26.67;67.80;97850.78;10280190;28;20748;-52
2023/07/15 19:51:12;;;;;;;14.27;11.30;;;;;;;26.57;68.48;97854.06;10282949;28;20566;-52
2023/07/15 19:56:11;;;;;;;13.80;11.98;;;;;;;26.44;68.56;97846.94;10280533;28;20121;-52
2023/07/15 20:01:10;;;;;;;14.35;11.68;;;;;;;26.38;68.80;97845.56;10283019;28;20117;-52
2023/07/15 20:06:11;;;;;;;15.38;11.70;;;;;;;26.30;68.94;97853.16;10281099;28;20051;-52
2023/07/15 20:11:10;;;;;;;13.55;11.50;;;;;;;26.23;69.21;97847.38;10280630;28;20064;-51
2023/07/15 20:16:09;;;;;;;16.30;12.10;;;;;;;26.17;69.20;97861.03;10280788;28;20040;-52
2023/07/15 20:21:08;;;;;;;19.27;13.10;;;;;;;26.05;71.59;97860.00;10280084;28;20373;-52
2023/07/15 20:26:06;;;;;;;16.55;13.65;;;;;;;25.78;74.63;97859.88;10284347;28;20038;-53
2023/07/15 20:31:06;;;;;;;19.38;13.38;;;;;;;25.69;75.07;97855.13;10283088;28;20442;-52
2023/07/15 20:36:05;;;;;;;16.67;12.90;;;;;;;25.59;75.91;97862.81;10285561;28;20065;-52
2023/07/15 20:41:04;;;;;;;14.95;12.75;;;;;;;25.45;76.90;97860.09;10284359;28;20037;-51
2023/07/15 20:46:03;;;;;;;17.75;13.18;;;;;;;25.37;77.28;97854.41;10282007;28;20499;-53
2023/07/15 20:51:02;;;;;;;17.17;12.88;;;;;;;25.38;77.21;97854.28;10284235;28;20069;-53
2023/07/15 20:56:01;;;;;;;16.60;14.23;;;;;;;25.35;76.90;97853.63;10280298;28;20076;-53
2023/07/15 21:01:00;;;;;;;17.08;13.25;;;;;;;25.28;76.90;97855.78;10283278;28;20029;-51
2023/07/15 21:06:02;;;;;;;13.95;12.45;;;;;;;25.21;76.49;97849.97;10281701;28;20133;-51
2023/07/15 21:11:01;;;;;;;14.30;12.52;;;;;;;25.13;75.99;97852.25;10281067;28;20073;-51
2023/07/15 21:16:00;;;;;;;14.38;12.80;;;;;;;25.08;75.84;97843.66;10284023;28;20034;-50
2023/07/15 21:20:59;;;;;;;15.95;12.80;;;;;;;25.07;75.72;97848.13;10282110;28;20065;-50
2023/07/15 21:25:58;;;;;;;17.38;13.27;;;;;;;25.01;76.73;97837.88;10279401;28;20041;-52
2023/07/15 21:30:57;;;;;;;16.63;14.10;;;;;;;24.87;77.73;97840.47;10276330;28;20050;-53
2023/07/15 21:35:56;;;;;;;21.67;15.15;;;;;;;24.75;78.41;97836.69;10280322;28;20133;-51
2023/07/15 21:40:55;;;;;;;18.88;14.57;;;;;;;24.70;79.08;97828.13;10280004;28;20062;-53
2023/07/15 21:45:54;;;;;;;22.60;15.35;;;;;;;24.59;80.05;97836.72;10278624;28;20391;-53
2023/07/15 21:50:54;;;;;;;19.58;15.48;;;;;;;24.52;80.93;97839.78;10279705;28;20048;-50
2023/07/15 21:55:56;;;;;;;17.90;16.00;;;;;;;24.39;81.44;97836.97;10279133;28;20134;-52
2023/07/15 22:00:58;;;;;;;20.10;15.65;;;;;;;24.20;81.84;97823.88;10285766;28;20518;-52
2023/07/15 22:05:57;;;;;;;17.75;15.13;;;;;;;24.22;82.32;97841.44;10285753;28;20133;-52
2023/07/15 22:10:56;;;;;;;19.40;16.10;;;;;;;24.21;82.08;97836.19;10285621;28;20036;-50
2023/07/15 22:15:55;;;;;;;17.48;15.13;;;;;;;24.18;82.52;97841.69;10286267;28;20497;-51
2023/07/15 22:20:54;;;;;;;18.85;14.20;;;;;;;24.12;82.81;97841.97;10281593;28;20040;-51
2023/07/15 22:25:56;;;;;;;16.92;14.15;;;;;;;24.03;82.87;97838.91;10281841;28;20030;-50
2023/07/15 22:30:55;;;;;;;19.45;16.38;;;;;;;24.01;83.32;97843.41;10282871;28;20157;-53
2023/07/15 22:35:54;;;;;;;18.63;15.40;;;;;;;23.95;84.08;97841.09;10283304;28;20042;-52
2023/07/15 22:40:53;;;;;;;20.00;15.75;;;;;;;23.86;85.12;97846.88;10286669;28;20045;-52
2023/07/15 22:45:52;;;;;;;17.45;15.10;;;;;;;23.73;85.56;97836.09;10285729;28;20080;-51
2023/07/15 22:50:51;;;;;;;19.48;15.25;;;;;;;23.69;85.56;97836.34;10285761;28;20022;-52